sensor_id;sensor_type;location;lat;lon;timestamp;P1;durP1;ratioP1;P2;durP2;ratioP2
76320;SDS011;65132;52.088;5.402;2023-06-10T00:02:10;8.93;;;4.75;;
76320;SDS011;65132;52.088;5.402;2023-06-10T00:04:36;9.38;;;5.88;;
76320;SDS011;65132;52.088;5.402;2023-06-10T00:07:03;10.00;;;6.03;;
76320;SDS011;65132;52.088;5.402;2023-06-10T00:09:36;8.25;;;6.40;;
76320;SDS011;65132;52.088;5.402;2023-06-10T00:12:05;7.53;;;5.78;;
76320;SDS011;65132;52.088;5.402;2023-06-10T00:14:36;10.52;;;5.97;;
76320;SDS011;65132;52.088;5.402;2023-06-10T00:17:03;8.05;;;5.28;;
76320;SDS011;65132;52.088;5.402;2023-06-10T00:19:30;8.55;;;4.63;;
76320;SDS011;65132;52.088;5.402;2023-06-10T00:22:01;7.63;;;4.30;;
76320;SDS011;65132;52.088;5.402;2023-06-10T00:24:29;7.72;;;5.38;;
76320;SDS011;65132;52.088;5.402;2023-06-10T00:27:00;11.32;;;5.47;;
76320;SDS011;65132;52.088;5.402;2023-06-10T00:29:26;9.55;;;5.25;;
76320;SDS011;65132;52.088;5.402;2023-06-10T00:31:55;9.30;;;5.28;;
76320;SDS011;65132;52.088;5.402;2023-06-10T00:34:21;7.15;;;4.45;;
76320;SDS011;65132;52.088;5.402;2023-06-10T00:36:48;8.13;;;5.18;;
76320;SDS011;65132;52.088;5.402;2023-06-10T00:39:14;7.15;;;5.10;;
76320;SDS011;65132;52.088;5.402;2023-06-10T00:41:40;7.32;;;5.05;;
76320;SDS011;65132;52.088;5.402;2023-06-10T00:44:08;8.43;;;4.93;;
76320;SDS011;65132;52.088;5.402;2023-06-10T00:46:39;9.63;;;5.38;;
76320;SDS011;65132;52.088;5.402;2023-06-10T00:49:06;7.97;;;5.20;;
76320;SDS011;65132;52.088;5.402;2023-06-10T00:51:36;7.60;;;4.78;;
76320;SDS011;65132;52.088;5.402;2023-06-10T00:54:02;7.55;;;5.18;;
76320;SDS011;65132;52.088;5.402;2023-06-10T00:56:30;8.68;;;4.93;;
76320;SDS011;65132;52.088;5.402;2023-06-10T00:58:57;7.28;;;4.22;;
76320;SDS011;65132;52.088;5.402;2023-06-10T01:01:24;8.30;;;4.00;;
76320;SDS011;65132;52.088;5.402;2023-06-10T01:03:54;7.45;;;4.50;;
76320;SDS011;65132;52.088;5.402;2023-06-10T01:12:20;7.20;;;4.35;;
76320;SDS011;65132;52.088;5.402;2023-06-10T01:14:51;6.00;;;4.38;;
76320;SDS011;65132;52.088;5.402;2023-06-10T01:17:26;7.30;;;4.40;;
76320;SDS011;65132;52.088;5.402;2023-06-10T01:19:54;7.10;;;4.72;;
76320;SDS011;65132;52.088;5.402;2023-06-10T01:22:26;8.18;;;4.50;;
76320;SDS011;65132;52.088;5.402;2023-06-10T01:24:55;7.68;;;4.43;;
76320;SDS011;65132;52.088;5.402;2023-06-10T01:27:22;6.72;;;3.88;;
76320;SDS011;65132;52.088;5.402;2023-06-10T01:29:54;8.23;;;4.18;;
76320;SDS011;65132;52.088;5.402;2023-06-10T01:32:40;7.75;;;4.00;;
76320;SDS011;65132;52.088;5.402;2023-06-10T01:35:11;7.47;;;4.18;;
76320;SDS011;65132;52.088;5.402;2023-06-10T01:37:38;7.07;;;4.60;;
76320;SDS011;65132;52.088;5.402;2023-06-10T01:40:09;6.32;;;4.15;;
76320;SDS011;65132;52.088;5.402;2023-06-10T01:42:37;7.15;;;4.40;;
76320;SDS011;65132;52.088;5.402;2023-06-10T01:45:04;6.78;;;4.13;;
76320;SDS011;65132;52.088;5.402;2023-06-10T01:47:34;9.77;;;4.50;;
76320;SDS011;65132;52.088;5.402;2023-06-10T01:50:05;7.60;;;4.10;;
76320;SDS011;65132;52.088;5.402;2023-06-10T01:52:34;7.75;;;4.50;;
76320;SDS011;65132;52.088;5.402;2023-06-10T01:55:01;8.10;;;4.00;;
76320;SDS011;65132;52.088;5.402;2023-06-10T01:57:27;8.30;;;4.22;;
76320;SDS011;65132;52.088;5.402;2023-06-10T02:00:03;7.85;;;4.28;;
76320;SDS011;65132;52.088;5.402;2023-06-10T02:02:30;7.95;;;3.85;;
76320;SDS011;65132;52.088;5.402;2023-06-10T02:04:57;6.57;;;3.50;;
76320;SDS011;65132;52.088;5.402;2023-06-10T02:07:23;8.32;;;4.30;;
76320;SDS011;65132;52.088;5.402;2023-06-10T02:09:52;7.35;;;3.83;;
76320;SDS011;65132;52.088;5.402;2023-06-10T02:12:18;8.85;;;4.70;;
76320;SDS011;65132;52.088;5.402;2023-06-10T02:14:45;6.57;;;3.60;;
76320;SDS011;65132;52.088;5.402;2023-06-10T02:17:11;9.55;;;4.68;;
76320;SDS011;65132;52.088;5.402;2023-06-10T02:19:42;10.50;;;4.13;;
76320;SDS011;65132;52.088;5.402;2023-06-10T02:22:09;7.22;;;4.00;;
76320;SDS011;65132;52.088;5.402;2023-06-10T02:24:40;8.48;;;4.25;;
76320;SDS011;65132;52.088;5.402;2023-06-10T02:27:09;10.13;;;3.92;;
76320;SDS011;65132;52.088;5.402;2023-06-10T02:29:38;9.30;;;4.32;;
76320;SDS011;65132;52.088;5.402;2023-06-10T02:32:08;6.97;;;3.97;;
76320;SDS011;65132;52.088;5.402;2023-06-10T02:34:36;8.70;;;4.57;;
76320;SDS011;65132;52.088;5.402;2023-06-10T02:37:03;8.70;;;4.47;;
76320;SDS011;65132;52.088;5.402;2023-06-10T02:39:29;5.90;;;4.03;;
76320;SDS011;65132;52.088;5.402;2023-06-10T02:41:58;6.97;;;3.88;;
76320;SDS011;65132;52.088;5.402;2023-06-10T02:44:36;7.03;;;3.92;;
76320;SDS011;65132;52.088;5.402;2023-06-10T02:47:05;7.50;;;4.28;;
76320;SDS011;65132;52.088;5.402;2023-06-10T02:49:34;7.30;;;4.20;;
76320;SDS011;65132;52.088;5.402;2023-06-10T02:52:00;8.07;;;4.13;;
76320;SDS011;65132;52.088;5.402;2023-06-10T02:54:30;7.20;;;4.25;;
76320;SDS011;65132;52.088;5.402;2023-06-10T02:56:56;6.43;;;3.53;;
76320;SDS011;65132;52.088;5.402;2023-06-10T02:59:23;6.25;;;3.78;;
76320;SDS011;65132;52.088;5.402;2023-06-10T03:01:51;7.05;;;3.30;;
76320;SDS011;65132;52.088;5.402;2023-06-10T03:04:19;7.78;;;3.83;;
76320;SDS011;65132;52.088;5.402;2023-06-10T03:06:56;7.53;;;3.53;;
76320;SDS011;65132;52.088;5.402;2023-06-10T03:09:23;6.38;;;3.83;;
76320;SDS011;65132;52.088;5.402;2023-06-10T03:11:51;9.00;;;3.97;;
76320;SDS011;65132;52.088;5.402;2023-06-10T03:14:18;7.90;;;4.50;;
76320;SDS011;65132;52.088;5.402;2023-06-10T03:16:46;8.43;;;4.72;;
76320;SDS011;65132;52.088;5.402;2023-06-10T03:19:13;9.00;;;5.05;;
76320;SDS011;65132;52.088;5.402;2023-06-10T03:21:43;7.60;;;4.40;;
76320;SDS011;65132;52.088;5.402;2023-06-10T03:24:13;6.47;;;3.95;;
76320;SDS011;65132;52.088;5.402;2023-06-10T03:26:39;9.77;;;5.28;;
76320;SDS011;65132;52.088;5.402;2023-06-10T03:29:13;6.95;;;3.95;;
76320;SDS011;65132;52.088;5.402;2023-06-10T03:31:39;10.55;;;4.32;;
76320;SDS011;65132;52.088;5.402;2023-06-10T03:34:06;7.60;;;3.90;;
76320;SDS011;65132;52.088;5.402;2023-06-10T03:36:42;7.60;;;5.15;;
76320;SDS011;65132;52.088;5.402;2023-06-10T03:39:09;9.00;;;4.68;;
76320;SDS011;65132;52.088;5.402;2023-06-10T03:41:35;9.38;;;4.70;;
76320;SDS011;65132;52.088;5.402;2023-06-10T03:44:02;7.60;;;4.38;;
76320;SDS011;65132;52.088;5.402;2023-06-10T03:46:28;8.45;;;5.05;;
76320;SDS011;65132;52.088;5.402;2023-06-10T03:48:55;8.10;;;3.97;;
76320;SDS011;65132;52.088;5.402;2023-06-10T03:51:21;7.68;;;4.25;;
76320;SDS011;65132;52.088;5.402;2023-06-10T03:54:07;8.40;;;4.80;;
76320;SDS011;65132;52.088;5.402;2023-06-10T03:56:36;8.82;;;4.75;;
76320;SDS011;65132;52.088;5.402;2023-06-10T03:59:02;8.27;;;4.35;;
76320;SDS011;65132;52.088;5.402;2023-06-10T04:01:31;7.90;;;4.85;;
76320;SDS011;65132;52.088;5.402;2023-06-10T04:04:00;9.00;;;4.57;;
76320;SDS011;65132;52.088;5.402;2023-06-10T04:06:27;8.73;;;4.57;;
76320;SDS011;65132;52.088;5.402;2023-06-10T04:08:53;7.75;;;4.78;;
76320;SDS011;65132;52.088;5.402;2023-06-10T04:11:23;9.98;;;4.20;;
76320;SDS011;65132;52.088;5.402;2023-06-10T04:13:50;8.23;;;3.65;;
76320;SDS011;65132;52.088;5.402;2023-06-10T04:16:18;8.55;;;4.30;;
76320;SDS011;65132;52.088;5.402;2023-06-10T04:18:44;6.70;;;3.92;;
76320;SDS011;65132;52.088;5.402;2023-06-10T04:21:11;8.15;;;3.95;;
76320;SDS011;65132;52.088;5.402;2023-06-10T04:23:37;8.70;;;4.40;;
76320;SDS011;65132;52.088;5.402;2023-06-10T04:26:04;9.85;;;4.28;;
76320;SDS011;65132;52.088;5.402;2023-06-10T04:28:32;9.15;;;4.10;;
76320;SDS011;65132;52.088;5.402;2023-06-10T04:31:04;9.38;;;4.15;;
76320;SDS011;65132;52.088;5.402;2023-06-10T04:33:30;7.88;;;4.32;;
76320;SDS011;65132;52.088;5.402;2023-06-10T04:35:59;10.25;;;4.65;;
76320;SDS011;65132;52.088;5.402;2023-06-10T04:38:26;8.63;;;4.32;;
76320;SDS011;65132;52.088;5.402;2023-06-10T04:40:52;8.15;;;4.25;;
76320;SDS011;65132;52.088;5.402;2023-06-10T04:43:23;9.27;;;4.18;;
76320;SDS011;65132;52.088;5.402;2023-06-10T04:48:28;8.70;;;3.90;;
76320;SDS011;65132;52.088;5.402;2023-06-10T04:50:58;8.27;;;4.18;;
76320;SDS011;65132;52.088;5.402;2023-06-10T04:53:38;9.27;;;4.65;;
76320;SDS011;65132;52.088;5.402;2023-06-10T04:58:34;7.95;;;4.13;;
76320;SDS011;65132;52.088;5.402;2023-06-10T05:01:09;9.23;;;4.10;;
76320;SDS011;65132;52.088;5.402;2023-06-10T05:03:35;8.32;;;4.45;;
76320;SDS011;65132;52.088;5.402;2023-06-10T05:06:02;9.05;;;4.80;;
76320;SDS011;65132;52.088;5.402;2023-06-10T05:08:29;7.93;;;3.70;;
76320;SDS011;65132;52.088;5.402;2023-06-10T05:10:55;6.80;;;3.75;;
76320;SDS011;65132;52.088;5.402;2023-06-10T05:13:38;8.43;;;4.35;;
76320;SDS011;65132;52.088;5.402;2023-06-10T05:16:04;11.85;;;5.15;;
76320;SDS011;65132;52.088;5.402;2023-06-10T05:18:34;7.72;;;4.35;;
76320;SDS011;65132;52.088;5.402;2023-06-10T05:21:01;9.07;;;4.65;;
76320;SDS011;65132;52.088;5.402;2023-06-10T05:23:28;9.80;;;4.40;;
76320;SDS011;65132;52.088;5.402;2023-06-10T05:25:54;14.90;;;4.97;;
76320;SDS011;65132;52.088;5.402;2023-06-10T05:28:21;8.15;;;4.22;;
76320;SDS011;65132;52.088;5.402;2023-06-10T05:30:48;7.88;;;4.70;;
76320;SDS011;65132;52.088;5.402;2023-06-10T05:33:14;9.38;;;4.80;;
76320;SDS011;65132;52.088;5.402;2023-06-10T05:35:42;9.35;;;5.72;;
76320;SDS011;65132;52.088;5.402;2023-06-10T05:38:10;9.77;;;5.45;;
76320;SDS011;65132;52.088;5.402;2023-06-10T05:40:39;7.93;;;4.85;;
76320;SDS011;65132;52.088;5.402;2023-06-10T05:43:05;7.47;;;4.90;;
76320;SDS011;65132;52.088;5.402;2023-06-10T05:45:34;10.52;;;4.75;;
76320;SDS011;65132;52.088;5.402;2023-06-10T05:48:00;11.32;;;5.38;;
76320;SDS011;65132;52.088;5.402;2023-06-10T05:50:26;7.53;;;4.70;;
76320;SDS011;65132;52.088;5.402;2023-06-10T05:52:53;8.70;;;4.70;;
76320;SDS011;65132;52.088;5.402;2023-06-10T05:55:19;7.65;;;4.70;;
76320;SDS011;65132;52.088;5.402;2023-06-10T05:57:46;8.70;;;4.43;;
76320;SDS011;65132;52.088;5.402;2023-06-10T06:00:24;10.15;;;5.57;;
76320;SDS011;65132;52.088;5.402;2023-06-10T06:02:50;8.95;;;5.25;;
76320;SDS011;65132;52.088;5.402;2023-06-10T06:05:17;13.48;;;5.70;;
76320;SDS011;65132;52.088;5.402;2023-06-10T06:07:47;9.02;;;4.93;;
76320;SDS011;65132;52.088;5.402;2023-06-10T06:10:17;8.85;;;5.20;;
76320;SDS011;65132;52.088;5.402;2023-06-10T06:12:44;8.75;;;5.22;;
76320;SDS011;65132;52.088;5.402;2023-06-10T06:15:11;8.65;;;5.13;;
76320;SDS011;65132;52.088;5.402;2023-06-10T06:17:38;10.02;;;5.28;;
76320;SDS011;65132;52.088;5.402;2023-06-10T06:20:04;7.80;;;4.97;;
76320;SDS011;65132;52.088;5.402;2023-06-10T06:22:31;14.25;;;6.00;;
76320;SDS011;65132;52.088;5.402;2023-06-10T06:24:58;11.57;;;5.40;;
76320;SDS011;65132;52.088;5.402;2023-06-10T06:27:26;8.68;;;5.05;;
76320;SDS011;65132;52.088;5.402;2023-06-10T06:29:53;7.95;;;5.18;;
76320;SDS011;65132;52.088;5.402;2023-06-10T06:32:25;12.80;;;5.63;;
76320;SDS011;65132;52.088;5.402;2023-06-10T06:34:51;8.38;;;4.97;;
76320;SDS011;65132;52.088;5.402;2023-06-10T06:37:19;10.10;;;4.60;;
76320;SDS011;65132;52.088;5.402;2023-06-10T06:39:50;9.07;;;5.15;;
76320;SDS011;65132;52.088;5.402;2023-06-10T06:42:17;9.63;;;5.32;;
76320;SDS011;65132;52.088;5.402;2023-06-10T06:44:44;10.55;;;4.97;;
76320;SDS011;65132;52.088;5.402;2023-06-10T06:47:13;9.40;;;4.75;;
76320;SDS011;65132;52.088;5.402;2023-06-10T06:49:42;9.32;;;4.88;;
76320;SDS011;65132;52.088;5.402;2023-06-10T06:52:08;10.93;;;4.80;;
76320;SDS011;65132;52.088;5.402;2023-06-10T06:54:37;9.63;;;5.10;;
76320;SDS011;65132;52.088;5.402;2023-06-10T06:57:03;8.23;;;5.00;;
76320;SDS011;65132;52.088;5.402;2023-06-10T06:59:30;9.77;;;5.13;;
76320;SDS011;65132;52.088;5.402;2023-06-10T07:01:58;8.60;;;4.45;;
76320;SDS011;65132;52.088;5.402;2023-06-10T07:04:25;8.13;;;4.75;;
76320;SDS011;65132;52.088;5.402;2023-06-10T07:06:52;13.80;;;5.18;;
76320;SDS011;65132;52.088;5.402;2023-06-10T07:09:21;9.88;;;4.03;;
76320;SDS011;65132;52.088;5.402;2023-06-10T07:11:47;8.18;;;4.43;;
76320;SDS011;65132;52.088;5.402;2023-06-10T07:14:16;7.30;;;4.63;;
76320;SDS011;65132;52.088;5.402;2023-06-10T07:16:42;8.10;;;5.28;;
76320;SDS011;65132;52.088;5.402;2023-06-10T07:19:10;7.53;;;3.63;;
76320;SDS011;65132;52.088;5.402;2023-06-10T07:21:40;10.65;;;5.25;;
76320;SDS011;65132;52.088;5.402;2023-06-10T07:24:06;8.85;;;5.03;;
76320;SDS011;65132;52.088;5.402;2023-06-10T07:26:33;8.15;;;5.05;;
76320;SDS011;65132;52.088;5.402;2023-06-10T07:28:59;9.82;;;3.92;;
76320;SDS011;65132;52.088;5.402;2023-06-10T07:31:26;13.63;;;4.53;;
76320;SDS011;65132;52.088;5.402;2023-06-10T07:33:52;6.88;;;4.60;;
76320;SDS011;65132;52.088;5.402;2023-06-10T07:36:19;10.40;;;4.53;;
76320;SDS011;65132;52.088;5.402;2023-06-10T07:38:48;10.20;;;4.95;;
76320;SDS011;65132;52.088;5.402;2023-06-10T07:41:14;8.13;;;4.30;;
76320;SDS011;65132;52.088;5.402;2023-06-10T07:43:50;7.97;;;4.75;;
76320;SDS011;65132;52.088;5.402;2023-06-10T07:48:47;10.68;;;4.15;;
76320;SDS011;65132;52.088;5.402;2023-06-10T07:51:16;9.50;;;4.65;;
76320;SDS011;65132;52.088;5.402;2023-06-10T07:53:43;6.68;;;4.22;;
76320;SDS011;65132;52.088;5.402;2023-06-10T07:56:12;9.43;;;4.63;;
76320;SDS011;65132;52.088;5.402;2023-06-10T07:58:42;9.15;;;5.13;;
76320;SDS011;65132;52.088;5.402;2023-06-10T08:01:08;13.10;;;5.45;;
76320;SDS011;65132;52.088;5.402;2023-06-10T08:03:40;10.63;;;4.30;;
76320;SDS011;65132;52.088;5.402;2023-06-10T08:06:08;13.52;;;6.28;;
76320;SDS011;65132;52.088;5.402;2023-06-10T08:08:36;7.15;;;4.55;;
76320;SDS011;65132;52.088;5.402;2023-06-10T08:11:02;6.75;;;4.32;;
76320;SDS011;65132;52.088;5.402;2023-06-10T08:13:28;10.00;;;4.78;;
76320;SDS011;65132;52.088;5.402;2023-06-10T08:15:55;8.30;;;4.70;;
76320;SDS011;65132;52.088;5.402;2023-06-10T08:18:21;11.73;;;4.88;;
76320;SDS011;65132;52.088;5.402;2023-06-10T08:20:48;8.90;;;4.70;;
76320;SDS011;65132;52.088;5.402;2023-06-10T08:23:25;9.25;;;4.68;;
76320;SDS011;65132;52.088;5.402;2023-06-10T08:25:51;7.70;;;4.75;;
76320;SDS011;65132;52.088;5.402;2023-06-10T08:28:28;7.95;;;4.78;;
76320;SDS011;65132;52.088;5.402;2023-06-10T08:30:54;10.18;;;5.28;;
76320;SDS011;65132;52.088;5.402;2023-06-10T08:33:23;8.65;;;4.38;;
76320;SDS011;65132;52.088;5.402;2023-06-10T08:35:50;6.38;;;4.35;;
76320;SDS011;65132;52.088;5.402;2023-06-10T08:38:26;8.13;;;4.53;;
76320;SDS011;65132;52.088;5.402;2023-06-10T08:40:54;6.78;;;4.55;;
76320;SDS011;65132;52.088;5.402;2023-06-10T08:45:54;9.70;;;4.60;;
76320;SDS011;65132;52.088;5.402;2023-06-10T08:48:29;7.82;;;4.13;;
76320;SDS011;65132;52.088;5.402;2023-06-10T08:51:01;7.28;;;4.28;;
76320;SDS011;65132;52.088;5.402;2023-06-10T08:53:30;5.93;;;4.03;;
76320;SDS011;65132;52.088;5.402;2023-06-10T08:56:05;8.23;;;3.30;;
76320;SDS011;65132;52.088;5.402;2023-06-10T08:58:32;6.25;;;3.85;;
76320;SDS011;65132;52.088;5.402;2023-06-10T09:00:59;6.28;;;4.13;;
76320;SDS011;65132;52.088;5.402;2023-06-10T09:03:37;6.63;;;4.38;;
76320;SDS011;65132;52.088;5.402;2023-06-10T09:06:07;7.18;;;3.97;;
76320;SDS011;65132;52.088;5.402;2023-06-10T09:08:33;7.03;;;4.43;;
76320;SDS011;65132;52.088;5.402;2023-06-10T09:11:02;6.03;;;4.18;;
76320;SDS011;65132;52.088;5.402;2023-06-10T09:13:36;6.45;;;3.72;;
76320;SDS011;65132;52.088;5.402;2023-06-10T09:16:12;6.25;;;4.53;;
76320;SDS011;65132;52.088;5.402;2023-06-10T09:21:26;7.22;;;4.00;;
76320;SDS011;65132;52.088;5.402;2023-06-10T09:23:53;7.07;;;4.70;;
76320;SDS011;65132;52.088;5.402;2023-06-10T09:26:22;9.88;;;3.95;;
76320;SDS011;65132;52.088;5.402;2023-06-10T09:29:02;5.40;;;3.83;;
76320;SDS011;65132;52.088;5.402;2023-06-10T09:31:33;6.55;;;3.53;;
76320;SDS011;65132;52.088;5.402;2023-06-10T09:34:08;5.55;;;3.33;;
76320;SDS011;65132;52.088;5.402;2023-06-10T09:36:39;8.48;;;4.00;;
76320;SDS011;65132;52.088;5.402;2023-06-10T09:39:16;6.00;;;3.60;;
76320;SDS011;65132;52.088;5.402;2023-06-10T09:41:46;5.70;;;3.60;;
76320;SDS011;65132;52.088;5.402;2023-06-10T09:44:13;7.03;;;3.78;;
76320;SDS011;65132;52.088;5.402;2023-06-10T09:46:40;6.45;;;3.28;;
76320;SDS011;65132;52.088;5.402;2023-06-10T09:49:08;5.97;;;3.50;;
76320;SDS011;65132;52.088;5.402;2023-06-10T09:51:42;8.20;;;3.78;;
76320;SDS011;65132;52.088;5.402;2023-06-10T09:54:18;7.75;;;3.53;;
76320;SDS011;65132;52.088;5.402;2023-06-10T09:57:00;6.15;;;3.55;;
76320;SDS011;65132;52.088;5.402;2023-06-10T09:59:34;6.22;;;3.20;;
76320;SDS011;65132;52.088;5.402;2023-06-10T10:02:04;6.32;;;4.40;;
76320;SDS011;65132;52.088;5.402;2023-06-10T10:04:36;6.93;;;4.40;;
76320;SDS011;65132;52.088;5.402;2023-06-10T10:07:05;6.32;;;3.75;;
76320;SDS011;65132;52.088;5.402;2023-06-10T10:09:31;5.78;;;3.80;;
76320;SDS011;65132;52.088;5.402;2023-06-10T10:12:10;5.95;;;3.40;;
76320;SDS011;65132;52.088;5.402;2023-06-10T10:14:43;7.50;;;3.65;;
76320;SDS011;65132;52.088;5.402;2023-06-10T10:17:14;6.22;;;3.70;;
76320;SDS011;65132;52.088;5.402;2023-06-10T10:19:49;5.35;;;3.40;;
76320;SDS011;65132;52.088;5.402;2023-06-10T10:22:29;6.85;;;4.25;;
76320;SDS011;65132;52.088;5.402;2023-06-10T10:25:02;6.18;;;3.15;;
76320;SDS011;65132;52.088;5.402;2023-06-10T10:27:35;6.68;;;3.67;;
76320;SDS011;65132;52.088;5.402;2023-06-10T10:30:14;6.30;;;3.33;;
76320;SDS011;65132;52.088;5.402;2023-06-10T10:32:58;5.90;;;3.80;;
76320;SDS011;65132;52.088;5.402;2023-06-10T10:35:36;5.57;;;3.78;;
76320;SDS011;65132;52.088;5.402;2023-06-10T10:38:04;6.03;;;3.47;;
76320;SDS011;65132;52.088;5.402;2023-06-10T10:40:34;6.05;;;3.22;;
76320;SDS011;65132;52.088;5.402;2023-06-10T10:43:01;6.85;;;3.55;;
76320;SDS011;65132;52.088;5.402;2023-06-10T10:45:28;5.90;;;3.60;;
76320;SDS011;65132;52.088;5.402;2023-06-10T10:47:55;5.55;;;3.15;;
76320;SDS011;65132;52.088;5.402;2023-06-10T10:50:28;4.93;;;3.20;;
76320;SDS011;65132;52.088;5.402;2023-06-10T10:52:57;6.85;;;3.40;;
76320;SDS011;65132;52.088;5.402;2023-06-10T10:55:26;8.13;;;3.88;;
76320;SDS011;65132;52.088;5.402;2023-06-10T10:57:57;6.63;;;3.72;;
76320;SDS011;65132;52.088;5.402;2023-06-10T11:05:37;6.70;;;3.65;;
76320;SDS011;65132;52.088;5.402;2023-06-10T11:08:04;5.20;;;3.47;;
76320;SDS011;65132;52.088;5.402;2023-06-10T11:10:32;5.50;;;3.28;;
76320;SDS011;65132;52.088;5.402;2023-06-10T11:13:04;5.95;;;3.55;;
76320;SDS011;65132;52.088;5.402;2023-06-10T11:15:42;6.25;;;3.38;;
76320;SDS011;65132;52.088;5.402;2023-06-10T11:18:34;6.35;;;3.72;;
76320;SDS011;65132;52.088;5.402;2023-06-10T11:21:12;4.43;;;3.20;;
76320;SDS011;65132;52.088;5.402;2023-06-10T11:23:39;7.10;;;3.58;;
76320;SDS011;65132;52.088;5.402;2023-06-10T11:31:22;5.15;;;3.90;;
76320;SDS011;65132;52.088;5.402;2023-06-10T11:33:57;6.35;;;4.00;;
76320;SDS011;65132;52.088;5.402;2023-06-10T11:36:28;5.88;;;4.15;;
76320;SDS011;65132;52.088;5.402;2023-06-10T11:38:56;6.68;;;3.80;;
76320;SDS011;65132;52.088;5.402;2023-06-10T11:41:33;6.00;;;4.10;;
76320;SDS011;65132;52.088;5.402;2023-06-10T11:44:08;7.07;;;3.78;;
76320;SDS011;65132;52.088;5.402;2023-06-10T11:46:40;5.95;;;3.65;;
76320;SDS011;65132;52.088;5.402;2023-06-10T11:49:09;5.57;;;3.45;;
76320;SDS011;65132;52.088;5.402;2023-06-10T11:51:42;4.45;;;3.15;;
76320;SDS011;65132;52.088;5.402;2023-06-10T11:54:16;5.40;;;3.50;;
76320;SDS011;65132;52.088;5.402;2023-06-10T11:56:46;5.80;;;3.83;;
76320;SDS011;65132;52.088;5.402;2023-06-10T11:59:13;7.22;;;3.53;;
76320;SDS011;65132;52.088;5.402;2023-06-10T12:01:43;6.32;;;3.65;;
76320;SDS011;65132;52.088;5.402;2023-06-10T12:04:14;5.30;;;3.28;;
76320;SDS011;65132;52.088;5.402;2023-06-10T12:09:28;6.47;;;3.50;;
76320;SDS011;65132;52.088;5.402;2023-06-10T12:11:59;4.25;;;3.35;;
76320;SDS011;65132;52.088;5.402;2023-06-10T12:20:12;5.75;;;3.42;;
76320;SDS011;65132;52.088;5.402;2023-06-10T12:23:00;4.40;;;3.38;;
76320;SDS011;65132;52.088;5.402;2023-06-10T12:25:36;5.40;;;3.42;;
76320;SDS011;65132;52.088;5.402;2023-06-10T12:28:05;5.75;;;3.92;;
76320;SDS011;65132;52.088;5.402;2023-06-10T12:30:37;4.63;;;3.35;;
76320;SDS011;65132;52.088;5.402;2023-06-10T12:33:15;5.28;;;3.65;;
76320;SDS011;65132;52.088;5.402;2023-06-10T12:35:48;6.25;;;3.63;;
76320;SDS011;65132;52.088;5.402;2023-06-10T12:38:23;4.88;;;3.80;;
76320;SDS011;65132;52.088;5.402;2023-06-10T12:40:52;5.68;;;3.53;;
76320;SDS011;65132;52.088;5.402;2023-06-10T12:43:30;6.15;;;3.85;;
76320;SDS011;65132;52.088;5.402;2023-06-10T12:46:07;5.00;;;3.65;;
76320;SDS011;65132;52.088;5.402;2023-06-10T12:48:43;4.90;;;3.45;;
76320;SDS011;65132;52.088;5.402;2023-06-10T12:51:15;6.72;;;3.95;;
76320;SDS011;65132;52.088;5.402;2023-06-10T12:53:49;6.00;;;3.60;;
76320;SDS011;65132;52.088;5.402;2023-06-10T12:56:15;4.72;;;4.13;;
76320;SDS011;65132;52.088;5.402;2023-06-10T12:58:42;5.30;;;4.13;;
76320;SDS011;65132;52.088;5.402;2023-06-10T13:01:11;4.70;;;4.20;;
76320;SDS011;65132;52.088;5.402;2023-06-10T13:03:38;4.82;;;3.90;;
76320;SDS011;65132;52.088;5.402;2023-06-10T13:06:07;7.10;;;4.13;;
76320;SDS011;65132;52.088;5.402;2023-06-10T13:08:35;5.30;;;4.20;;
76320;SDS011;65132;52.088;5.402;2023-06-10T13:11:03;5.28;;;3.63;;
76320;SDS011;65132;52.088;5.402;2023-06-10T13:13:35;5.57;;;4.15;;
76320;SDS011;65132;52.088;5.402;2023-06-10T13:16:03;7.72;;;4.45;;
76320;SDS011;65132;52.088;5.402;2023-06-10T13:18:29;5.43;;;4.07;;
76320;SDS011;65132;52.088;5.402;2023-06-10T13:20:58;5.80;;;5.07;;
76320;SDS011;65132;52.088;5.402;2023-06-10T13:23:27;8.80;;;3.83;;
76320;SDS011;65132;52.088;5.402;2023-06-10T13:25:57;5.60;;;4.28;;
76320;SDS011;65132;52.088;5.402;2023-06-10T13:28:29;5.15;;;4.13;;
76320;SDS011;65132;52.088;5.402;2023-06-10T13:30:58;6.10;;;3.90;;
76320;SDS011;65132;52.088;5.402;2023-06-10T13:33:25;6.07;;;3.88;;
76320;SDS011;65132;52.088;5.402;2023-06-10T13:35:51;5.35;;;4.28;;
76320;SDS011;65132;52.088;5.402;2023-06-10T13:38:18;7.90;;;4.18;;
76320;SDS011;65132;52.088;5.402;2023-06-10T13:40:47;5.70;;;4.38;;
76320;SDS011;65132;52.088;5.402;2023-06-10T13:43:13;7.97;;;4.05;;
76320;SDS011;65132;52.088;5.402;2023-06-10T13:45:40;7.30;;;4.00;;
76320;SDS011;65132;52.088;5.402;2023-06-10T13:48:06;6.28;;;3.63;;
76320;SDS011;65132;52.088;5.402;2023-06-10T13:50:38;4.97;;;4.05;;
76320;SDS011;65132;52.088;5.402;2023-06-10T13:53:07;5.63;;;4.00;;
76320;SDS011;65132;52.088;5.402;2023-06-10T13:55:33;7.00;;;4.40;;
76320;SDS011;65132;52.088;5.402;2023-06-10T13:57:59;5.70;;;4.18;;
76320;SDS011;65132;52.088;5.402;2023-06-10T14:00:26;5.25;;;4.00;;
76320;SDS011;65132;52.088;5.402;2023-06-10T14:02:52;6.72;;;4.07;;
76320;SDS011;65132;52.088;5.402;2023-06-10T14:05:22;5.05;;;3.65;;
76320;SDS011;65132;52.088;5.402;2023-06-10T14:07:51;5.13;;;4.13;;
76320;SDS011;65132;52.088;5.402;2023-06-10T14:10:17;6.75;;;3.85;;
76320;SDS011;65132;52.088;5.402;2023-06-10T14:12:53;6.07;;;4.32;;
76320;SDS011;65132;52.088;5.402;2023-06-10T14:15:22;7.85;;;4.53;;
76320;SDS011;65132;52.088;5.402;2023-06-10T14:17:48;4.97;;;4.07;;
76320;SDS011;65132;52.088;5.402;2023-06-10T14:20:20;5.22;;;3.85;;
76320;SDS011;65132;52.088;5.402;2023-06-10T14:22:46;5.20;;;3.70;;
76320;SDS011;65132;52.088;5.402;2023-06-10T14:25:14;6.00;;;3.75;;
76320;SDS011;65132;52.088;5.402;2023-06-10T14:27:43;5.07;;;3.90;;
76320;SDS011;65132;52.088;5.402;2023-06-10T14:30:11;4.40;;;3.60;;
76320;SDS011;65132;52.088;5.402;2023-06-10T14:32:41;5.38;;;3.70;;
76320;SDS011;65132;52.088;5.402;2023-06-10T14:35:10;4.18;;;3.78;;
76320;SDS011;65132;52.088;5.402;2023-06-10T14:37:37;5.38;;;3.67;;
76320;SDS011;65132;52.088;5.402;2023-06-10T14:40:06;5.80;;;3.67;;
76320;SDS011;65132;52.088;5.402;2023-06-10T14:42:33;6.13;;;3.95;;
76320;SDS011;65132;52.088;5.402;2023-06-10T14:44:59;5.03;;;3.80;;
76320;SDS011;65132;52.088;5.402;2023-06-10T14:47:26;5.15;;;4.03;;
76320;SDS011;65132;52.088;5.402;2023-06-10T14:49:52;7.15;;;4.40;;
76320;SDS011;65132;52.088;5.402;2023-06-10T14:52:22;5.72;;;4.20;;
76320;SDS011;65132;52.088;5.402;2023-06-10T14:54:49;5.22;;;3.80;;
76320;SDS011;65132;52.088;5.402;2023-06-10T14:57:19;4.68;;;3.67;;
76320;SDS011;65132;52.088;5.402;2023-06-10T14:59:46;4.65;;;4.03;;
76320;SDS011;65132;52.088;5.402;2023-06-10T15:02:13;5.60;;;3.72;;
76320;SDS011;65132;52.088;5.402;2023-06-10T15:04:42;6.57;;;3.58;;
76320;SDS011;65132;52.088;5.402;2023-06-10T15:07:18;5.97;;;4.15;;
76320;SDS011;65132;52.088;5.402;2023-06-10T15:09:46;5.53;;;3.50;;
76320;SDS011;65132;52.088;5.402;2023-06-10T15:12:15;5.10;;;3.63;;
76320;SDS011;65132;52.088;5.402;2023-06-10T15:14:52;7.00;;;3.90;;
76320;SDS011;65132;52.088;5.402;2023-06-10T15:17:20;4.88;;;3.72;;
76320;SDS011;65132;52.088;5.402;2023-06-10T15:20:00;6.63;;;3.65;;
76320;SDS011;65132;52.088;5.402;2023-06-10T15:25:03;9.10;;;4.05;;
76320;SDS011;65132;52.088;5.402;2023-06-10T15:27:49;5.03;;;3.30;;
76320;SDS011;65132;52.088;5.402;2023-06-10T15:30:16;7.45;;;3.80;;
76320;SDS011;65132;52.088;5.402;2023-06-10T15:32:42;5.05;;;3.60;;
76320;SDS011;65132;52.088;5.402;2023-06-10T15:35:11;6.03;;;4.00;;
76320;SDS011;65132;52.088;5.402;2023-06-10T15:37:44;5.72;;;4.05;;
76320;SDS011;65132;52.088;5.402;2023-06-10T15:40:11;8.10;;;3.50;;